createdAt,value
2022-11-30T00:04:51.976Z,19.39
2022-11-30T00:12:02.380Z,19.46
2022-11-30T00:19:34.924Z,19.48
2022-11-30T00:27:05.200Z,19.63
2022-11-30T00:34:47.874Z,19.47
2022-11-30T00:41:59.403Z,19.41
2022-11-30T00:49:27.786Z,19.38
2022-11-30T00:56:58.434Z,19.32
2022-11-30T01:04:23.415Z,19.35
2022-11-30T01:11:49.052Z,19.33
2022-11-30T01:19:18.694Z,19.33
2022-11-30T01:26:35.038Z,19.36
2022-11-30T01:34:05.696Z,19.6
2022-11-30T01:41:36.811Z,19.53
2022-11-30T01:49:20.882Z,19.41
2022-11-30T01:57:31.052Z,19.5
2022-11-30T02:05:21.869Z,19.44
2022-11-30T02:12:42.989Z,19.29
2022-11-30T02:20:31.860Z,19.46
2022-11-30T02:28:45.044Z,19.3
2022-11-30T02:36:17.498Z,19.38
2022-11-30T02:43:51.209Z,19.29
2022-11-30T02:51:49.476Z,19.25
2022-11-30T02:59:03.849Z,19.28
2022-11-30T03:06:35.386Z,19.34
2022-11-30T03:13:47.877Z,19.29
2022-11-30T03:21:24.049Z,19.24
2022-11-30T03:28:48.419Z,19.24
2022-11-30T03:36:07.925Z,19.34
2022-11-30T03:43:29.484Z,19.39
2022-11-30T03:50:43.015Z,19.34
2022-11-30T03:57:59.456Z,19.42
2022-11-30T04:05:27.894Z,19.47
2022-11-30T04:13:03.541Z,19.45
2022-11-30T04:20:30.388Z,19.4
2022-11-30T04:28:01.911Z,19.41
2022-11-30T04:35:31.937Z,19.22
2022-11-30T04:43:01.413Z,19.74
2022-11-30T04:50:22.147Z,20.23
2022-11-30T04:56:51.052Z,20.93
2022-11-30T05:03:16.866Z,21.15
2022-11-30T05:09:47.143Z,21.11
2022-11-30T05:16:19.029Z,21.25
2022-11-30T05:22:46.056Z,21.14
2022-11-30T05:29:31.096Z,21.1
2022-11-30T05:35:55.489Z,21.09
2022-11-30T05:42:22.149Z,20.91
2022-11-30T05:48:45.115Z,20.9
2022-11-30T05:55:19.577Z,20.9
2022-11-30T06:01:57.769Z,20.78
2022-11-30T06:08:26.085Z,20.72
2022-11-30T06:14:56.049Z,20.82
2022-11-30T06:21:28.640Z,21.15
2022-11-30T06:27:57.231Z,22.27
2022-11-30T06:34:26.124Z,22.53
2022-11-30T06:40:55.562Z,22.49
2022-11-30T06:47:25.186Z,22.67
2022-11-30T06:53:53.619Z,23
2022-11-30T07:00:20.659Z,23.21
2022-11-30T07:06:57.675Z,23.3
2022-11-30T07:13:24.163Z,23.17
2022-11-30T07:19:54.194Z,22.99
2022-11-30T07:26:16.109Z,22.89
2022-11-30T07:32:46.092Z,22.83
2022-11-30T07:39:24.599Z,22.81
2022-11-30T07:45:53.633Z,22.84
2022-11-30T07:52:27.113Z,22.75
2022-11-30T07:58:59.164Z,22.57
2022-11-30T08:05:33.809Z,22.33
2022-11-30T08:12:07.320Z,22.1
2022-11-30T08:18:36.229Z,22.09
2022-11-30T08:25:01.355Z,21.92
2022-11-30T08:31:42.463Z,21.8
2022-11-30T08:38:14.670Z,21.64
2022-11-30T08:44:38.197Z,21.53
2022-11-30T08:51:16.176Z,21.53
2022-11-30T08:57:57.296Z,21.4
2022-11-30T09:04:44.279Z,21.26
2022-11-30T09:11:19.438Z,21.35
2022-11-30T09:17:58.520Z,21.23
2022-11-30T09:24:37.736Z,21.24
2022-11-30T09:31:09.392Z,21.3
2022-11-30T09:37:45.653Z,21.35
2022-11-30T09:44:51.325Z,21.21
2022-11-30T09:51:57.381Z,21.29
2022-11-30T09:59:15.196Z,21.31
2022-11-30T10:05:59.973Z,21.32
2022-11-30T10:13:06.214Z,21.36
2022-11-30T10:20:23.264Z,21.2
2022-11-30T10:27:34.240Z,21.13
2022-11-30T10:34:36.272Z,21.14
2022-11-30T10:41:40.238Z,20.95
2022-11-30T10:48:46.866Z,20.9
2022-11-30T10:55:47.220Z,20.87
2022-11-30T11:02:52.053Z,20.91
2022-11-30T11:10:00.375Z,20.82
2022-11-30T11:16:54.288Z,20.76
2022-11-30T11:23:50.299Z,20.64
2022-11-30T11:30:39.551Z,20.75
2022-11-30T11:37:48.811Z,20.68
2022-11-30T11:45:07.989Z,20.66
2022-11-30T11:52:15.387Z,20.61
2022-11-30T11:59:03.159Z,20.62
2022-11-30T12:06:08.244Z,20.59
2022-11-30T12:13:11.336Z,20.59
2022-11-30T12:20:02.852Z,20.5
2022-11-30T12:27:14.142Z,20.48
2022-11-30T12:34:17.099Z,20.47
2022-11-30T12:41:33.341Z,20.52
2022-11-30T12:48:51.404Z,20.56
2022-11-30T12:56:02.872Z,20.42
2022-11-30T13:03:10.324Z,20.54
2022-11-30T13:10:21.825Z,20.6
2022-11-30T13:17:33.541Z,20.63
2022-11-30T13:24:51.364Z,20.55
2022-11-30T13:31:54.894Z,20.47
2022-11-30T13:39:04.322Z,20.45
2022-11-30T13:46:00.768Z,20.44
2022-11-30T13:52:50.904Z,20.41
2022-11-30T13:59:33.356Z,20.43
2022-11-30T14:06:35.776Z,20.38
2022-11-30T14:13:38.329Z,20.45
2022-11-30T14:20:43.331Z,20.53
2022-11-30T14:27:54.347Z,20.48
2022-11-30T14:34:59.381Z,20.52
2022-11-30T14:41:52.535Z,20.54
2022-11-30T14:48:53.440Z,20.48
2022-11-30T14:55:59.699Z,20.4
2022-11-30T15:02:57.603Z,20.38
2022-11-30T15:09:32.715Z,20.31
2022-11-30T15:16:29.779Z,20.37
2022-11-30T15:23:28.297Z,20.53
2022-11-30T15:30:20.922Z,20.38
2022-11-30T15:37:01.814Z,20.38
2022-11-30T15:43:56.360Z,20.41
2022-11-30T15:51:04.681Z,20.4
2022-11-30T15:58:04.119Z,20.38
2022-11-30T16:05:14.370Z,20.38
2022-11-30T16:12:14.093Z,20.38
2022-11-30T16:18:55.576Z,20.34
2022-11-30T16:25:30.412Z,20.49
2022-11-30T16:32:10.959Z,20.45
2022-11-30T16:38:51.442Z,20.34
2022-11-30T16:45:26.453Z,20.39
2022-11-30T16:52:08.158Z,20.29
2022-11-30T16:58:43.734Z,20.31
2022-11-30T17:05:47.852Z,20.32
2022-11-30T17:12:27.404Z,20.25
2022-11-30T17:19:04.749Z,20.17
2022-11-30T17:25:31.505Z,20.23
2022-11-30T17:31:58.533Z,20.18
2022-11-30T17:38:29.793Z,20.2
2022-11-30T17:44:56.467Z,20.25
2022-11-30T17:51:29.502Z,20.19
2022-11-30T17:58:08.419Z,20.18
2022-11-30T18:04:43.395Z,20.19
2022-11-30T18:11:16.626Z,20.22
2022-11-30T18:17:47.760Z,20.22
2022-11-30T18:24:14.445Z,20.12
2022-11-30T18:30:47.416Z,20.12
2022-11-30T18:37:21.490Z,20.15
2022-11-30T18:43:49.605Z,20.12
2022-11-30T18:50:19.460Z,20.17
2022-11-30T18:56:48.850Z,20.18
2022-11-30T19:03:21.670Z,20.12
2022-11-30T19:09:57.750Z,20.12
2022-11-30T19:16:30.403Z,20.16
2022-11-30T19:22:57.509Z,20.27
2022-11-30T19:29:29.955Z,20.29
2022-11-30T19:36:08.590Z,20.19
2022-11-30T19:42:42.406Z,20.31
2022-11-30T19:49:18.109Z,20.34
2022-11-30T19:55:44.468Z,20.45
2022-11-30T20:02:15.800Z,20.46
2022-11-30T20:08:49.707Z,20.44
2022-11-30T20:15:15.611Z,20.24
2022-11-30T20:21:48.617Z,20.24
2022-11-30T20:28:19.932Z,20.19
2022-11-30T20:34:43.648Z,20.13
2022-11-30T20:41:11.538Z,20.32
2022-11-30T20:47:52.531Z,20.13
2022-11-30T20:54:19.468Z,20.16
2022-11-30T21:00:48.316Z,20.13
2022-11-30T21:07:15.470Z,20.1
2022-11-30T21:13:47.521Z,20.15
2022-11-30T21:20:15.439Z,20.13
2022-11-30T21:26:56.795Z,20.15
2022-11-30T21:33:27.601Z,20.1
2022-11-30T21:40:01.387Z,20.12
2022-11-30T21:46:30.661Z,20.09
2022-11-30T21:53:07.469Z,20.17
2022-11-30T21:59:47.379Z,20.07
2022-11-30T22:06:21.211Z,20.1
2022-11-30T22:12:58.570Z,20.12
2022-11-30T22:19:23.829Z,20.08
2022-11-30T22:25:58.491Z,20.04
2022-11-30T22:32:38.394Z,20.07
2022-11-30T22:39:18.398Z,20.05
2022-11-30T22:45:46.058Z,20.03
2022-11-30T22:52:42.549Z,20.04
2022-11-30T22:59:23.720Z,20.08
2022-11-30T23:05:57.582Z,20.1
2022-11-30T23:12:51.183Z,20.04
2022-11-30T23:19:16.309Z,20.1
2022-11-30T23:25:49.478Z,20.23
2022-11-30T23:32:25.651Z,20.13
2022-11-30T23:38:52.727Z,20.33
2022-11-30T23:45:22.600Z,20.16
2022-11-30T23:51:48.989Z,20.24
2022-11-30T23:58:24.582Z,20.31
